• Join FlightAware (Why Join?)
  • Login
  • US Flag 
03:51AM EDT


 

Airport Tracker/Info


-or-


 

Live Flight TrackerFlight Track Log ✈ EGF4269 ✈ 20-Apr-2013 ✈ KORD - KAZO

Flight Track Log - Related Links

Times and Time Zones

All times are in EDT time to prevent confusion due to time zone crossing. See the EGF4269 flight status page for this flight to view local times or setup timezone preferences in your user account.

Time Position Orientation Groundspeed Altitude Reporting Facility
EDT Latitude Longitude Course Direction KTS MPH feet Rate Location/Type
08:28PM 41.9833 -87.8500 77° East 177 204 2,100  Level Chicago TRACON
08:29PM 41.9833 -87.7667 90° East 245 282 4,200 2,400 Climbing Chicago TRACON
08:30PM 42.0382 -87.4964 83° East  Level FlightAware Approximate
08:30PM 42.0158 -87.6050 75° East 268 308 9,000  Level Chicago Center
08:31PM 42.0515 -87.3567 78° East  Level FlightAware Approximate
08:31PM 42.0267 -87.4989 82° East 283 326 10,500  Level Chicago Center
08:32PM 42.0728 -87.2187 78° East  Level FlightAware Approximate
08:32PM 42.0422 -87.3706 81° East 342 394 11,000  Level Chicago Center
08:33PM 42.0881 -87.1214 77° East  Level FlightAware Approximate
08:34PM 42.0592 -87.2050 82° East 369 425 11,000  Level Chicago Center
08:35PM 42.0744 -87.0650 82° East 375 432 11,000  Level Chicago Center
08:36PM 42.0889 -86.9242 82° East 379 436 11,000  Level Chicago Center
08:37PM 42.1053 -86.7878 81° East 372 428 11,000  Level Chicago Center
08:38PM 42.1206 -86.6375 82° East 377 434 11,000  Level Chicago Center
08:39PM 42.1361 -86.4992 81° East 374 430 11,000  Level Chicago Center
08:40PM 42.1511 -86.3614 82° East 372 428 11,000  Level Chicago Center
08:41PM 42.1650 -86.2236 82° East 372 428 11,000  Level Chicago Center
08:42PM 42.1628 -86.0886 91° East 363 418 11,000 -720 Level Chicago Center
08:43PM 42.1567 -85.9789 94° East 307 353 9,600 -1,680 Descending Chicago Center
08:44PM 42.1519 -85.8747 93° East 284 327 7,700 -1,860 Descending Chicago Center
08:45PM 42.1492 -85.7708 92° East 279 321 5,900 -1,800 Descending Chicago Center